createdAt,value
2018-07-06T00:03:34.925Z,5.10
2018-07-06T00:08:49.570Z,4.45
2018-07-06T00:14:04.222Z,4.50
2018-07-06T00:19:19.008Z,5.55
2018-07-06T00:24:33.642Z,5.10
2018-07-06T00:29:48.491Z,5.80
2018-07-06T00:35:03.300Z,5.30
2018-07-06T00:40:18.296Z,5.50
2018-07-06T00:45:32.825Z,5.30
2018-07-06T00:50:47.789Z,5.87
2018-07-06T00:56:02.527Z,4.90
2018-07-06T01:01:19.194Z,4.90
2018-07-06T01:06:34.076Z,5.00
2018-07-06T01:11:49.027Z,5.20
2018-07-06T01:17:03.846Z,5.20
2018-07-06T01:22:19.578Z,5.60
2018-07-06T01:27:34.492Z,5.40
2018-07-06T01:32:51.326Z,5.10
2018-07-06T01:38:06.053Z,4.62
2018-07-06T01:43:21.129Z,5.17
2018-07-06T01:48:36.914Z,4.95
2018-07-06T01:53:51.607Z,4.70
2018-07-06T01:59:07.290Z,4.95
2018-07-06T02:04:22.023Z,4.97
2018-07-06T02:09:38.082Z,5.58
2018-07-06T02:14:52.789Z,6.03
2018-07-06T02:20:07.450Z,5.08
2018-07-06T02:25:22.164Z,5.30
2018-07-06T02:30:36.967Z,5.27
2018-07-06T02:35:57.124Z,5.30
2018-07-06T02:41:15.948Z,5.40
2018-07-06T02:46:30.671Z,5.65
2018-07-06T02:51:45.458Z,5.90
2018-07-06T02:57:00.512Z,5.72
2018-07-06T03:02:15.102Z,6.00
2018-07-06T03:07:31.979Z,6.90
2018-07-06T03:12:47.342Z,8.60
2018-07-06T03:18:02.012Z,8.00
2018-07-06T03:23:21.749Z,7.72
2018-07-06T03:28:36.734Z,8.40
2018-07-06T03:33:51.254Z,9.75
2018-07-06T03:39:06.420Z,9.60
2018-07-06T03:44:21.080Z,11.73
2018-07-06T03:49:35.828Z,11.75
2018-07-06T03:54:56.131Z,12.82
2018-07-06T04:00:11.461Z,12.20
2018-07-06T04:05:26.077Z,12.15
2018-07-06T04:10:41.383Z,12.80
2018-07-06T04:15:56.350Z,11.78
2018-07-06T04:21:10.934Z,12.10
2018-07-06T04:26:25.951Z,11.93
2018-07-06T04:31:40.711Z,11.90
2018-07-06T04:36:55.256Z,10.00
2018-07-06T04:42:10.162Z,12.00
2018-07-06T04:47:24.985Z,10.50
2018-07-06T04:52:43.820Z,10.43
2018-07-06T04:57:58.736Z,9.63
2018-07-06T05:03:14.535Z,10.43
2018-07-06T05:08:29.246Z,9.88
2018-07-06T05:13:44.991Z,9.35
2018-07-06T05:18:59.831Z,8.83
2018-07-06T05:24:18.437Z,8.93
2018-07-06T05:29:33.983Z,8.03
2018-07-06T05:34:48.684Z,7.57
2018-07-06T05:40:03.371Z,8.23
2018-07-06T05:45:12.922Z,6.92
2018-07-06T05:50:29.936Z,6.83
2018-07-06T05:55:44.604Z,6.90
2018-07-06T06:00:59.253Z,7.40
2018-07-06T06:06:14.189Z,7.17
2018-07-06T06:11:17.828Z,6.17
2018-07-06T06:16:21.978Z,6.83
2018-07-06T06:21:25.446Z,6.03
2018-07-06T06:26:30.910Z,6.13
2018-07-06T06:31:34.515Z,6.37
2018-07-06T06:36:39.827Z,6.00
2018-07-06T06:41:44.781Z,5.60
2018-07-06T06:46:48.451Z,5.70
2018-07-06T06:51:51.757Z,5.70
2018-07-06T06:56:55.398Z,5.95
2018-07-06T07:01:58.902Z,5.60
2018-07-06T07:07:02.359Z,6.37
2018-07-06T07:12:06.709Z,6.30
2018-07-06T07:17:11.354Z,5.53
2018-07-06T07:22:15.475Z,5.93
2018-07-06T07:27:19.113Z,5.90
2018-07-06T07:32:24.731Z,6.45
2018-07-06T07:37:27.891Z,5.75
2018-07-06T07:42:37.695Z,5.30
2018-07-06T07:47:41.372Z,5.00
2018-07-06T07:52:56.102Z,4.10
2018-07-06T07:58:05.697Z,4.62
2018-07-06T08:03:09.034Z,3.73
2018-07-06T08:08:12.730Z,3.90
2018-07-06T08:13:17.847Z,3.50
2018-07-06T08:18:22.126Z,3.47
2018-07-06T08:23:28.984Z,3.70
2018-07-06T08:28:35.126Z,4.80
2018-07-06T08:33:46.500Z,3.70
2018-07-06T08:38:49.962Z,3.70
2018-07-06T08:43:55.550Z,3.70
2018-07-06T08:48:59.096Z,3.30
2018-07-06T08:54:02.618Z,5.90
2018-07-06T08:59:07.479Z,3.33
2018-07-06T09:04:11.520Z,4.12
2018-07-06T09:09:15.448Z,2.80
2018-07-06T09:14:18.946Z,4.17
2018-07-06T09:19:24.219Z,3.60
2018-07-06T09:24:27.643Z,2.80
2018-07-06T09:29:34.842Z,4.72
2018-07-06T09:34:38.569Z,4.15
2018-07-06T09:39:43.805Z,3.20
2018-07-06T09:44:47.321Z,3.23
2018-07-06T09:49:50.816Z,2.30
2018-07-06T09:54:54.600Z,2.90
2018-07-06T09:59:58.079Z,3.30
2018-07-06T10:05:04.000Z,2.47
2018-07-06T10:10:07.886Z,2.67
2018-07-06T10:15:11.668Z,2.92
2018-07-06T10:20:17.359Z,2.47
2018-07-06T10:25:22.457Z,2.33
2018-07-06T10:30:40.860Z,2.50
2018-07-06T10:35:45.455Z,2.60
2018-07-06T10:40:49.699Z,2.60
2018-07-06T10:45:53.542Z,2.70
2018-07-06T10:50:57.085Z,3.40
2018-07-06T10:56:00.846Z,2.50
2018-07-06T11:01:04.609Z,3.70
2018-07-06T11:06:08.198Z,3.00
2018-07-06T11:11:13.685Z,2.47
2018-07-06T11:16:21.899Z,2.50
2018-07-06T11:27:39.002Z,2.60
2018-07-06T11:32:50.530Z,3.47
2018-07-06T11:38:01.014Z,2.45
2018-07-06T11:43:04.470Z,2.70
2018-07-06T11:54:03.882Z,2.90
2018-07-06T12:16:03.181Z,2.70
2018-07-06T12:21:24.663Z,2.55
2018-07-06T12:26:30.330Z,2.70
2018-07-06T12:37:14.971Z,2.87
2018-07-06T12:42:18.497Z,4.47
2018-07-06T12:47:22.027Z,2.40
2018-07-06T12:52:25.507Z,3.00
2018-07-06T12:57:31.354Z,2.77
2018-07-06T13:02:42.961Z,3.05
2018-07-06T13:07:46.736Z,3.80
2018-07-06T13:12:50.909Z,3.30
2018-07-06T13:17:56.336Z,3.50
2018-07-06T13:22:59.835Z,3.80
2018-07-06T13:28:03.392Z,2.90
2018-07-06T13:33:07.005Z,3.63
2018-07-06T13:38:12.895Z,3.75
2018-07-06T13:43:16.735Z,3.40
2018-07-06T13:48:20.311Z,2.80
2018-07-06T13:53:23.982Z,2.30
2018-07-06T13:58:27.470Z,2.70
2018-07-06T14:03:30.989Z,3.10
2018-07-06T14:08:34.871Z,2.60
2018-07-06T14:13:38.326Z,3.20
2018-07-06T14:18:41.907Z,4.08
2018-07-06T14:23:45.460Z,4.70
2018-07-06T14:28:52.685Z,5.00
2018-07-06T14:33:56.269Z,3.60
2018-07-06T14:39:00.175Z,3.50
2018-07-06T14:44:03.753Z,3.40
2018-07-06T14:49:07.234Z,2.70
2018-07-06T14:54:10.843Z,6.30
2018-07-06T14:59:14.636Z,5.40
2018-07-06T15:04:20.233Z,3.20
2018-07-06T15:09:26.172Z,3.37
2018-07-06T15:14:29.983Z,3.15
2018-07-06T15:19:34.028Z,2.70
2018-07-06T15:24:38.627Z,2.70
2018-07-06T15:35:20.874Z,3.22
2018-07-06T15:46:09.405Z,5.47
2018-07-06T15:51:13.360Z,4.00
2018-07-06T15:56:20.558Z,6.43
2018-07-06T16:01:27.267Z,3.55
2018-07-06T16:06:30.782Z,4.40
2018-07-06T16:11:36.055Z,3.97
2018-07-06T16:16:39.588Z,4.35
2018-07-06T16:21:43.268Z,6.30
2018-07-06T16:26:47.606Z,4.50
2018-07-06T16:31:54.246Z,3.97
2018-07-06T16:36:57.885Z,4.00
2018-07-06T16:42:03.151Z,3.85
2018-07-06T16:47:07.846Z,4.00
2018-07-06T16:52:11.332Z,4.62
2018-07-06T16:57:19.015Z,5.42
2018-07-06T17:02:22.517Z,3.80
2018-07-06T17:07:29.170Z,3.62
2018-07-06T17:12:33.103Z,3.22
2018-07-06T17:17:36.740Z,3.23
2018-07-06T17:22:40.560Z,3.47
2018-07-06T17:27:44.795Z,3.60
2018-07-06T17:32:50.527Z,5.35
2018-07-06T17:37:57.062Z,3.72
2018-07-06T17:43:00.991Z,3.40
2018-07-06T17:48:05.032Z,3.40
2018-07-06T17:53:11.728Z,3.33
2018-07-06T17:58:15.536Z,3.47
2018-07-06T18:03:19.121Z,3.83
2018-07-06T18:08:22.600Z,2.95
2018-07-06T18:13:28.570Z,3.33
2018-07-06T18:18:32.510Z,3.45
2018-07-06T18:23:36.567Z,3.40
2018-07-06T18:28:41.216Z,4.72
2018-07-06T18:33:45.932Z,5.30
2018-07-06T18:38:49.446Z,6.17
2018-07-06T18:43:53.942Z,7.90
2018-07-06T18:48:57.598Z,4.17
2018-07-06T18:59:09.194Z,3.90
2018-07-06T19:04:17.318Z,4.13
2018-07-06T19:09:21.203Z,3.90
2018-07-06T19:14:24.898Z,4.17
2018-07-06T19:19:30.107Z,4.50
2018-07-06T19:24:36.836Z,4.10
2018-07-06T19:29:48.977Z,4.40
2018-07-06T19:34:58.407Z,5.10
2018-07-06T19:40:11.277Z,4.40
2018-07-06T19:45:15.897Z,4.78
2018-07-06T19:50:21.651Z,4.77
2018-07-06T19:55:38.047Z,4.35
2018-07-06T20:00:51.755Z,4.50
2018-07-06T20:05:57.667Z,4.15
2018-07-06T20:11:06.967Z,5.00
2018-07-06T20:21:47.891Z,4.62
2018-07-06T20:26:57.920Z,4.90
2018-07-06T20:32:09.117Z,5.53
2018-07-06T20:37:50.065Z,5.72
2018-07-06T20:43:00.027Z,5.10
2018-07-06T20:48:06.145Z,5.20
2018-07-06T20:53:15.351Z,5.20
2018-07-06T20:58:19.264Z,4.90
2018-07-06T21:03:28.988Z,5.40
2018-07-06T21:08:37.195Z,5.80
2018-07-06T21:13:40.815Z,5.53
2018-07-06T21:18:47.570Z,6.17
2018-07-06T21:23:53.334Z,5.92
2018-07-06T21:28:58.142Z,5.85
2018-07-06T21:34:03.695Z,5.57
2018-07-06T21:39:09.005Z,5.60
2018-07-06T21:44:12.501Z,5.80
2018-07-06T21:49:16.286Z,6.25
2018-07-06T21:54:29.674Z,5.95
2018-07-06T22:00:39.679Z,6.20
2018-07-06T22:05:48.055Z,6.00
2018-07-06T22:10:53.472Z,6.12
2018-07-06T22:15:57.189Z,9.33
2018-07-06T22:21:00.748Z,7.35
2018-07-06T22:26:04.133Z,6.55
2018-07-06T22:31:07.538Z,7.53
2018-07-06T22:36:13.881Z,7.77
2018-07-06T22:41:17.983Z,7.20
2018-07-06T22:46:21.438Z,7.03
2018-07-06T22:51:25.746Z,8.10
2018-07-06T22:56:31.258Z,7.87
2018-07-06T23:01:34.903Z,8.38
2018-07-06T23:06:38.450Z,8.13
2018-07-06T23:12:50.514Z,8.35
2018-07-06T23:18:04.106Z,8.77
2018-07-06T23:23:12.573Z,8.55
2018-07-06T23:28:19.803Z,9.45
2018-07-06T23:38:51.576Z,9.60
2018-07-06T23:43:55.064Z,9.73
2018-07-06T23:48:58.491Z,9.78
2018-07-06T23:54:01.926Z,9.40
2018-07-06T23:59:09.399Z,9.50
